Portada
METAR-TAF:

METAR-TAF

Aeroports :

Aeroport de Menorca

Menorca, Espanya

latitud: 39-52N, longitud: 004-14E, altitud: 87 m

Observació

L'informe es va fer fa 37 minuts, a les 06:30 UTC
Vent 4 kt del Est/Sud-Est, variant entre Est/Nord-Est i Sud-Est
Temperatura 24°C
Humitat 74%
Pressió 1017 hPa
Visibilitat 10 km o més
sense núvols per sota de 1500 mi sense presència de cumulonimbus.

METAR: LEMH 090630Z 11004KT 070V140 CAVOK 24/19 Q1017

Hora: 09:07 (07:07 UTC)

Pronòstic

L'informe es va fer fa 5 hores i 7 minuts, a les 02:00 UTC
Pronòstic vàlid del 09 a les 03 UTC al 10 a les 03 UTC
Vent 4 kt amb direcció variable
Visibilitat 10 km o més
sense núvols per sota de 1500 mi sense presència de cumulonimbus.
Evolucionant progressivament
l' 09 a les 07 UTC al 09 a les 09 UTC
Vent 10 kt del Est

TAF: LEMH 090200Z 0903/1003 VRB04KT CAVOK TX30/0914Z TN20/0905Z BECMG 0907/0909 09010KT

Observacions i pronòstics meteorològics de més de 4000 aeroports (METAR i TAF).

Les estacions disponibles són els punts grocs i vermells al mapa.

Posi el ratolí al punt desitjat per veure el nom de l'estació.

Feu clic per veure les observacions i els pronòstics meteorològics.

Per canviar el mapa: feu clic els botons verds amb una creu de color negre per apropar; al botó verd amb un guió per allunyar la imatge; o en les fletxes verdes per a mapes adjacents.


METAR-TAF: